Time;durP1;ratioP1;P1;durP2;ratioP2;P2;SDS_P1;SDS_P2;PMS_P1;PMS_P2;Temp;Humidity;BMP_temperature;BMP_pressure;BME280_temperature;BME280_humidity;BME280_pressure;Samples;Min_cycle;Max_cycle;Signal;HPM_P1;HPM_P2
2023/03/03 00:02:04;;;;;;;38.27;24.50;;;;;;;;;;4963206;28;20494;-78
2023/03/03 00:04:30;;;;;;;38.87;24.63;;;;;;;;;;4963037;28;20187;-78
2023/03/03 00:06:56;;;;;;;34.37;23.70;;;;;;;;;;4953249;28;20241;-78
2023/03/03 00:09:22;;;;;;;38.72;26.02;;;;;;;;;;4960088;28;20472;-78
2023/03/03 00:11:53;;;;;;;36.00;24.87;;;;;;;;;;4947806;28;20213;-78
2023/03/03 00:14:25;;;;;;;35.90;24.07;;;;;;;;;;4973569;28;20186;-78
2023/03/03 00:16:51;;;;;;;42.20;30.98;;;;;;;;;;4978408;28;20484;-77
2023/03/03 00:19:19;;;;;;;37.23;24.63;;;;;;;;;;4957358;28;20187;-77
2023/03/03 00:21:45;;;;;;;35.63;24.00;;;;;;;;;;4970392;28;20294;-76
2023/03/03 00:24:22;;;;;;;33.93;23.30;;;;;;;;;;4972639;28;20205;-77
2023/03/03 00:26:51;;;;;;;34.37;22.87;;;;;;;;;;4965967;28;20201;-76
2023/03/03 00:29:27;;;;;;;34.30;22.90;;;;;;;;;;4984782;28;20179;-77
2023/03/03 00:31:53;;;;;;;35.45;23.38;;;;;;;;;;4959648;28;20410;-78
2023/03/03 00:34:26;;;;;;;39.45;29.10;;;;;;;;;;4986532;28;20440;-78
2023/03/03 00:36:54;;;;;;;40.47;30.07;;;;;;;;;;4974740;28;20418;-78
2023/03/03 00:39:37;;;;;;;38.70;29.00;;;;;;;;;;4975425;28;20426;-78
2023/03/03 00:42:11;;;;;;;38.80;29.20;;;;;;;;;;4954023;28;20444;-78
2023/03/03 00:44:42;;;;;;;35.85;28.38;;;;;;;;;;4977719;28;20503;-78
2023/03/03 00:47:27;;;;;;;36.83;28.97;;;;;;;;;;4958319;28;20450;-78
2023/03/03 00:50:16;;;;;;;31.77;25.00;;;;;;;;;;4970247;28;20508;-81
2023/03/03 00:52:48;;;;;;;29.65;23.92;;;;;;;;;;4977945;28;20408;-81
2023/03/03 00:55:14;;;;;;;34.65;26.58;;;;;;;;;;4977519;28;20447;-78
2023/03/03 00:57:40;;;;;;;35.38;27.10;;;;;;;;;;4977664;28;20420;-78
2023/03/03 01:00:06;;;;;;;32.53;22.40;;;;;;;;;;4978504;28;20919;-78
2023/03/03 01:02:32;;;;;;;35.58;27.02;;;;;;;;;;4961558;28;20535;-78
2023/03/03 01:04:58;;;;;;;34.90;26.92;;;;;;;;;;4977755;28;20487;-78
2023/03/03 01:07:24;;;;;;;34.83;27.08;;;;;;;;;;4977567;28;20458;-77
2023/03/03 01:09:50;;;;;;;36.00;27.17;;;;;;;;;;4961781;28;20417;-76
2023/03/03 01:12:16;;;;;;;35.35;28.00;;;;;;;;;;4958043;28;20441;-77
2023/03/03 01:14:44;;;;;;;35.63;27.80;;;;;;;;;;4958169;28;20420;-77
2023/03/03 01:17:10;;;;;;;32.20;22.13;;;;;;;;;;4976190;28;20174;-76
2023/03/03 01:19:36;;;;;;;35.72;27.80;;;;;;;;;;4977428;28;20413;-77
2023/03/03 01:22:02;;;;;;;34.83;28.08;;;;;;;;;;4957920;28;20511;-77
2023/03/03 01:24:28;;;;;;;35.78;26.10;;;;;;;;;;4966243;28;20417;-77
2023/03/03 01:26:54;;;;;;;37.60;28.27;;;;;;;;;;4957741;28;20426;-77
2023/03/03 01:29:20;;;;;;;35.83;28.08;;;;;;;;;;4957627;28;20417;-77
2023/03/03 01:31:46;;;;;;;36.88;28.23;;;;;;;;;;4958527;28;20513;-77
2023/03/03 01:34:12;;;;;;;34.88;27.33;;;;;;;;;;4958090;28;20506;-77
2023/03/03 01:36:38;;;;;;;35.13;27.53;;;;;;;;;;4961189;28;20516;-77
2023/03/03 01:39:04;;;;;;;32.92;26.92;;;;;;;;;;4994200;28;20427;-77
2023/03/03 01:41:32;;;;;;;34.00;22.53;;;;;;;;;;4978111;28;20209;-77
2023/03/03 01:43:59;;;;;;;34.63;27.52;;;;;;;;;;4994198;28;20411;-77
2023/03/03 01:46:28;;;;;;;34.55;28.13;;;;;;;;;;4976450;28;20420;-76
2023/03/03 01:49:01;;;;;;;36.15;27.52;;;;;;;;;;4976871;28;20404;-77
2023/03/03 01:51:41;;;;;;;34.78;26.70;;;;;;;;;;4994052;28;20408;-77
2023/03/03 01:54:11;;;;;;;33.85;26.88;;;;;;;;;;4976568;28;20427;-77
2023/03/03 01:56:37;;;;;;;33.40;26.23;;;;;;;;;;4976594;28;20439;-78
2023/03/03 01:59:11;;;;;;;35.28;26.73;;;;;;;;;;4976463;28;20499;-78
2023/03/03 02:01:37;;;;;;;35.67;23.60;;;;;;;;;;4977633;28;20205;-78
2023/03/03 02:04:03;;;;;;;36.92;28.08;;;;;;;;;;4960640;28;20579;-78
2023/03/03 02:06:32;;;;;;;37.33;28.03;;;;;;;;;;4976950;28;20501;-78
2023/03/03 02:09:07;;;;;;;36.50;25.73;;;;;;;;;;4977265;28;20412;-78
2023/03/03 02:11:34;;;;;;;36.92;25.85;;;;;;;;;;4977517;28;20479;-78
2023/03/03 02:14:00;;;;;;;36.23;22.93;;;;;;;;;;4977318;28;20178;-77
2023/03/03 02:16:26;;;;;;;40.30;29.52;;;;;;;;;;4976481;28;20531;-77
2023/03/03 02:18:52;;;;;;;40.37;30.47;;;;;;;;;;4976669;28;20420;-77
2023/03/03 02:21:19;;;;;;;42.70;30.75;;;;;;;;;;4976280;28;20486;-77
2023/03/03 02:23:52;;;;;;;36.73;24.70;;;;;;;;;;4994716;28;20170;-77
2023/03/03 02:26:21;;;;;;;36.55;24.15;;;;;;;;;;4979845;28;20402;-77
2023/03/03 02:28:48;;;;;;;42.17;29.88;;;;;;;;;;4980336;28;20500;-77
2023/03/03 02:31:16;;;;;;;38.60;24.97;;;;;;;;;;4961929;28;20209;-77
2023/03/03 02:33:43;;;;;;;42.15;30.33;;;;;;;;;;4991173;28;20427;-77
2023/03/03 02:36:13;;;;;;;41.20;30.98;;;;;;;;;;4965741;28;20426;-77
2023/03/03 02:38:45;;;;;;;40.10;30.38;;;;;;;;;;4978367;28;20421;-77
2023/03/03 02:41:41;;;;;;;42.70;30.67;;;;;;;;;;4979872;28;20437;-77
2023/03/03 02:44:08;;;;;;;41.85;30.88;;;;;;;;;;4941857;28;20492;-78
2023/03/03 02:46:36;;;;;;;41.35;30.45;;;;;;;;;;4971786;28;20429;-81
2023/03/03 02:49:02;;;;;;;40.55;30.35;;;;;;;;;;4977699;28;20504;-82
2023/03/03 02:51:28;;;;;;;44.23;32.27;;;;;;;;;;4979651;28;20417;-82
2023/03/03 02:53:54;;;;;;;45.10;31.85;;;;;;;;;;4980016;28;20447;-82
2023/03/03 02:56:20;;;;;;;47.45;33.42;;;;;;;;;;4965236;28;20510;-81
2023/03/03 02:58:46;;;;;;;42.50;26.27;;;;;;;;;;5010057;28;20192;-82
2023/03/03 03:01:12;;;;;;;40.50;25.00;;;;;;;;;;4999910;28;20337;-82
2023/03/03 03:03:39;;;;;;;45.47;32.05;;;;;;;;;;4983178;28;20415;-76
2023/03/03 03:06:05;;;;;;;41.92;26.95;;;;;;;;;;4999951;28;20421;-76
2023/03/03 03:08:31;;;;;;;42.13;31.00;;;;;;;;;;4999478;28;20430;-76
2023/03/03 03:10:57;;;;;;;44.60;31.70;;;;;;;;;;4999178;28;20679;-76
2023/03/03 03:13:24;;;;;;;38.37;25.07;;;;;;;;;;4975258;28;20233;-76
2023/03/03 03:15:50;;;;;;;37.50;23.87;;;;;;;;;;4980605;28;20182;-76
2023/03/03 03:18:16;;;;;;;40.35;26.27;;;;;;;;;;4980004;28;20416;-76
2023/03/03 03:20:43;;;;;;;42.63;29.27;;;;;;;;;;4997094;28;20448;-81
2023/03/03 03:23:09;;;;;;;40.22;28.77;;;;;;;;;;4979335;28;20412;-81
2023/03/03 03:25:41;;;;;;;41.97;29.38;;;;;;;;;;4979907;28;20424;-82
2023/03/03 03:28:07;;;;;;;39.53;28.67;;;;;;;;;;4979613;28;20416;-81
2023/03/03 03:30:35;;;;;;;41.58;29.63;;;;;;;;;;4963507;28;20413;-82
2023/03/03 03:33:01;;;;;;;40.15;27.35;;;;;;;;;;4979619;28;20507;-82
2023/03/03 03:35:27;;;;;;;42.03;29.48;;;;;;;;;;4963243;28;20527;-79
2023/03/03 03:37:53;;;;;;;39.13;27.30;;;;;;;;;;4963707;28;20470;-79
2023/03/03 03:40:19;;;;;;;42.05;29.42;;;;;;;;;;4963296;28;20413;-79
2023/03/03 03:42:45;;;;;;;41.08;28.77;;;;;;;;;;4963997;28;20447;-78
2023/03/03 03:45:14;;;;;;;43.03;29.20;;;;;;;;;;4962954;28;20417;-78
2023/03/03 03:47:43;;;;;;;39.53;28.45;;;;;;;;;;4949242;28;20433;-78
2023/03/03 03:50:10;;;;;;;39.85;29.13;;;;;;;;;;4978184;28;20406;-79
2023/03/03 03:52:36;;;;;;;38.67;27.88;;;;;;;;;;4967694;28;20425;-79
2023/03/03 03:55:03;;;;;;;39.97;28.65;;;;;;;;;;4960247;28;20414;-78
2023/03/03 03:57:29;;;;;;;38.20;28.20;;;;;;;;;;4969349;28;20416;-79
2023/03/03 03:59:55;;;;;;;40.38;29.00;;;;;;;;;;4962494;28;20416;-79
2023/03/03 04:02:21;;;;;;;39.83;29.05;;;;;;;;;;4962535;28;20508;-79
2023/03/03 04:04:47;;;;;;;41.08;28.75;;;;;;;;;;4984833;28;20482;-79
2023/03/03 04:07:13;;;;;;;40.70;28.92;;;;;;;;;;4982370;28;20403;-79
2023/03/03 04:09:39;;;;;;;41.05;28.70;;;;;;;;;;4982269;28;20490;-77
2023/03/03 04:12:05;;;;;;;41.53;29.50;;;;;;;;;;4981862;28;20437;-77
2023/03/03 04:14:31;;;;;;;42.05;29.75;;;;;;;;;;4998318;28;20502;-77
2023/03/03 04:16:57;;;;;;;40.67;28.73;;;;;;;;;;4990273;28;20454;-77
2023/03/03 04:19:23;;;;;;;41.77;29.73;;;;;;;;;;4962214;28;20553;-77
2023/03/03 04:21:50;;;;;;;41.13;29.50;;;;;;;;;;4978026;28;20428;-77
2023/03/03 04:24:18;;;;;;;40.10;28.85;;;;;;;;;;4978087;28;20420;-77
2023/03/03 04:26:44;;;;;;;42.08;29.05;;;;;;;;;;4962394;28;20423;-77
2023/03/03 04:29:10;;;;;;;43.05;29.38;;;;;;;;;;4978041;28;20417;-77
2023/03/03 04:31:36;;;;;;;43.22;29.00;;;;;;;;;;4978505;28;20513;-77
2023/03/03 04:34:02;;;;;;;44.03;29.88;;;;;;;;;;4961781;28;20468;-77
2023/03/03 04:36:28;;;;;;;42.35;30.25;;;;;;;;;;4961976;28;20511;-77
2023/03/03 04:38:54;;;;;;;44.45;30.75;;;;;;;;;;4995136;28;20415;-77
2023/03/03 04:41:20;;;;;;;44.03;30.40;;;;;;;;;;4961682;28;20436;-77
2023/03/03 04:43:46;;;;;;;42.85;29.65;;;;;;;;;;4961957;28;20468;-76
2023/03/03 04:46:12;;;;;;;43.13;30.30;;;;;;;;;;4995031;28;20405;-76
2023/03/03 04:48:38;;;;;;;47.15;31.60;;;;;;;;;;4976803;28;20416;-76
2023/03/03 04:51:04;;;;;;;46.33;30.90;;;;;;;;;;4962222;28;20415;-76
2023/03/03 04:53:30;;;;;;;48.53;32.43;;;;;;;;;;4977678;28;20423;-76
2023/03/03 04:55:56;;;;;;;45.70;30.33;;;;;;;;;;4977362;28;20413;-76
2023/03/03 04:58:22;;;;;;;43.10;30.00;;;;;;;;;;4977521;28;20420;-79
2023/03/03 05:00:55;;;;;;;44.35;30.42;;;;;;;;;;4977859;28;20412;-81
2023/03/03 05:03:21;;;;;;;44.95;30.20;;;;;;;;;;4994818;28;20401;-83
2023/03/03 05:05:47;;;;;;;44.30;30.45;;;;;;;;;;4961503;28;20429;-82
2023/03/03 05:08:13;;;;;;;45.55;31.20;;;;;;;;;;4977948;28;20405;-82
2023/03/03 05:10:39;;;;;;;44.88;30.83;;;;;;;;;;4977406;28;20428;-81
2023/03/03 05:13:07;;;;;;;45.17;31.08;;;;;;;;;;4977349;28;20412;-81
2023/03/03 05:15:33;;;;;;;47.53;31.90;;;;;;;;;;4958400;28;20414;-81
2023/03/03 05:17:59;;;;;;;47.55;31.88;;;;;;;;;;4988508;28;20487;-81
2023/03/03 05:20:25;;;;;;;44.28;31.00;;;;;;;;;;4976786;28;20420;-81
2023/03/03 05:22:51;;;;;;;45.53;30.83;;;;;;;;;;4949071;28;20429;-81
2023/03/03 05:25:17;;;;;;;48.25;31.38;;;;;;;;;;4946986;28;20505;-81
2023/03/03 05:27:43;;;;;;;46.17;31.60;;;;;;;;;;4976884;28;20405;-81
2023/03/03 05:30:10;;;;;;;50.60;31.42;;;;;;;;;;4959899;28;20407;-81
2023/03/03 05:32:36;;;;;;;46.45;32.45;;;;;;;;;;4962254;28;20420;-76
2023/03/03 05:35:03;;;;;;;47.13;32.00;;;;;;;;;;4975914;28;20464;-76
2023/03/03 05:37:29;;;;;;;45.88;31.30;;;;;;;;;;4976895;28;20500;-76
2023/03/03 05:39:55;;;;;;;46.03;30.75;;;;;;;;;;4976753;28;20428;-76
2023/03/03 05:42:21;;;;;;;43.50;30.05;;;;;;;;;;4960597;28;20436;-77
2023/03/03 05:44:47;;;;;;;41.42;28.90;;;;;;;;;;4993949;28;20419;-76
2023/03/03 05:47:13;;;;;;;37.42;26.88;;;;;;;;;;4976430;28;20415;-76
2023/03/03 05:49:39;;;;;;;38.03;26.88;;;;;;;;;;4990916;23;20462;-81
2023/03/03 05:52:05;;;;;;;35.35;25.95;;;;;;;;;;4978263;28;20415;-81
2023/03/03 05:54:31;;;;;;;36.88;26.08;;;;;;;;;;4961447;28;20457;-82
2023/03/03 05:56:57;;;;;;;36.25;26.10;;;;;;;;;;4966983;28;20426;-82
2023/03/03 05:59:24;;;;;;;34.22;24.70;;;;;;;;;;4977457;28;20438;-81
2023/03/03 06:01:50;;;;;;;32.92;24.63;;;;;;;;;;4990600;28;20431;-76
2023/03/03 06:04:17;;;;;;;30.90;23.52;;;;;;;;;;4959992;28;20440;-76
2023/03/03 06:06:43;;;;;;;31.42;23.05;;;;;;;;;;4960300;28;20411;-76
2023/03/03 06:09:09;;;;;;;30.05;22.80;;;;;;;;;;4967816;28;20411;-76
2023/03/03 06:11:36;;;;;;;31.20;23.10;;;;;;;;;;4976432;28;20422;-77
2023/03/03 06:14:02;;;;;;;31.42;23.10;;;;;;;;;;4965342;28;20477;-77
2023/03/03 06:16:28;;;;;;;31.52;23.27;;;;;;;;;;4956898;28;20462;-77
2023/03/03 06:18:54;;;;;;;31.83;22.60;;;;;;;;;;4961213;28;20422;-77
2023/03/03 06:21:20;;;;;;;29.88;22.67;;;;;;;;;;4965786;28;20462;-77
2023/03/03 06:23:46;;;;;;;31.23;22.88;;;;;;;;;;4964371;28;20420;-78
2023/03/03 06:26:12;;;;;;;32.20;22.63;;;;;;;;;;4974408;28;20413;-76
2023/03/03 06:28:38;;;;;;;28.23;21.20;;;;;;;;;;4984271;28;20495;-77
2023/03/03 06:36:36;;;;;;;26.85;20.15;;;;;;;;;;4987464;28;20424;-77
2023/03/03 06:39:02;;;;;;;26.42;20.52;;;;;;;;;;4971326;28;20421;-76
2023/03/03 06:41:29;;;;;;;27.27;20.40;;;;;;;;;;4994749;28;20500;-77
2023/03/03 06:49:27;;;;;;;27.55;20.30;;;;;;;;;;4972828;28;20450;-77
2023/03/03 06:51:54;;;;;;;29.48;20.63;;;;;;;;;;4973906;28;20437;-77
2023/03/03 06:54:21;;;;;;;27.95;19.77;;;;;;;;;;4992307;28;20419;-77
2023/03/03 06:56:47;;;;;;;27.05;20.08;;;;;;;;;;4980378;28;20426;-78
2023/03/03 06:59:18;;;;;;;25.90;17.55;;;;;;;;;;4975510;28;20433;-79
2023/03/03 07:01:44;;;;;;;27.83;19.10;;;;;;;;;;4981683;28;20432;-79
2023/03/03 07:04:33;;;;;;;28.35;19.27;;;;;;;;;;4981417;28;20419;-79
2023/03/03 07:07:19;;;;;;;24.27;18.13;;;;;;;;;;4982385;28;20415;-78
2023/03/03 07:09:46;;;;;;;24.50;17.15;;;;;;;;;;4981484;28;20473;-79
2023/03/03 07:12:17;;;;;;;24.23;16.67;;;;;;;;;;4988174;28;20428;-77
2023/03/03 07:14:44;;;;;;;23.73;15.95;;;;;;;;;;4995918;28;20408;-77
2023/03/03 07:17:14;;;;;;;25.42;17.15;;;;;;;;;;4996023;28;20427;-76
2023/03/03 07:19:40;;;;;;;24.10;16.15;;;;;;;;;;4986300;28;20468;-76
2023/03/03 07:22:12;;;;;;;25.10;16.52;;;;;;;;;;4975960;28;20430;-77
2023/03/03 07:24:38;;;;;;;23.80;16.55;;;;;;;;;;4976067;28;20407;-76
2023/03/03 07:27:10;;;;;;;23.42;16.77;;;;;;;;;;4970494;28;20424;-77
2023/03/03 07:29:40;;;;;;;23.17;15.82;;;;;;;;;;4988081;28;20424;-77
2023/03/03 07:32:18;;;;;;;21.38;16.02;;;;;;;;;;4979920;28;20426;-77
2023/03/03 07:34:46;;;;;;;25.80;17.67;;;;;;;;;;4975665;28;20445;-76
2023/03/03 07:37:34;;;;;;;28.35;18.40;;;;;;;;;;4975351;28;20414;-76
2023/03/03 07:40:01;;;;;;;26.20;18.05;;;;;;;;;;4975448;28;20484;-76
2023/03/03 07:42:40;;;;;;;27.02;16.73;;;;;;;;;;4995468;28;20439;-76
2023/03/03 07:45:24;;;;;;;29.38;18.75;;;;;;;;;;4977791;28;20464;-78
2023/03/03 07:47:50;;;;;;;28.63;18.60;;;;;;;;;;4975522;28;20449;-78
2023/03/03 07:50:20;;;;;;;29.38;18.58;;;;;;;;;;4976033;28;20441;-78
2023/03/03 07:52:57;;;;;;;28.88;18.95;;;;;;;;;;4975653;28;20441;-78
2023/03/03 07:55:30;;;;;;;26.23;18.60;;;;;;;;;;4975054;28;20418;-78
2023/03/03 07:58:15;;;;;;;27.10;17.42;;;;;;;;;;4979080;28;20434;-78
2023/03/03 08:00:44;;;;;;;28.05;19.00;;;;;;;;;;4975342;28;20527;-78
2023/03/03 08:03:10;;;;;;;26.33;16.42;;;;;;;;;;4991829;28;20440;-78
2023/03/03 08:41:50;;;;;;;27.77;18.17;;;;;;;;;;4993335;28;20464;-78
2023/03/03 08:44:18;;;;;;;23.50;16.00;;;;;;;;;;4977491;28;20432;-79
2023/03/03 08:46:44;;;;;;;16.10;10.83;;;;;;;;;;4994258;28;20187;-79
2023/03/03 08:49:10;;;;;;;17.83;13.27;;;;;;;;;;4977579;28;20424;-78
2023/03/03 08:51:36;;;;;;;19.57;13.27;;;;;;;;;;4976781;28;20425;-78
2023/03/03 08:54:02;;;;;;;16.47;11.10;;;;;;;;;;4995997;28;20186;-79
2023/03/03 08:56:28;;;;;;;19.60;11.43;;;;;;;;;;4979041;28;20221;-82
2023/03/03 08:58:54;;;;;;;16.47;11.13;;;;;;;;;;4995269;28;20223;-82
2023/03/03 09:01:20;;;;;;;19.53;13.20;;;;;;;;;;4977344;28;20440;-82
2023/03/03 09:03:46;;;;;;;19.83;14.05;;;;;;;;;;4993884;28;20455;-82
2023/03/03 09:06:12;;;;;;;19.10;13.20;;;;;;;;;;4993742;28;20413;-82
2023/03/03 09:08:38;;;;;;;19.23;13.18;;;;;;;;;;4977266;28;20421;-82
2023/03/03 09:11:14;;;;;;;18.55;12.85;;;;;;;;;;4977387;28;20420;-83
2023/03/03 09:13:40;;;;;;;18.38;13.07;;;;;;;;;;4993424;28;20424;-82
2023/03/03 09:16:15;;;;;;;14.43;10.40;;;;;;;;;;4993379;28;20182;-82
2023/03/03 09:18:42;;;;;;;15.05;11.07;;;;;;;;;;4992733;28;20416;-82
2023/03/03 09:21:18;;;;;;;15.90;10.38;;;;;;;;;;4989359;28;20426;-83
2023/03/03 09:23:49;;;;;;;14.13;10.50;;;;;;;;;;4991228;28;20418;-82
2023/03/03 09:26:15;;;;;;;13.23;10.45;;;;;;;;;;4979480;28;20423;-83
2023/03/03 09:28:41;;;;;;;14.30;10.23;;;;;;;;;;4993379;28;20409;-84
2023/03/03 09:31:21;;;;;;;14.25;9.60;;;;;;;;;;4994228;28;20434;-84
2023/03/03 09:33:53;;;;;;;13.07;9.90;;;;;;;;;;4993043;28;20500;-84
2023/03/03 09:36:25;;;;;;;12.33;7.87;;;;;;;;;;4977857;28;20183;-84
2023/03/03 09:38:51;;;;;;;12.43;9.40;;;;;;;;;;4975116;28;20406;-78
2023/03/03 09:41:32;;;;;;;12.43;9.55;;;;;;;;;;4957298;28;20446;-82
2023/03/03 09:44:22;;;;;;;12.05;9.02;;;;;;;;;;4958340;28;20418;-79
2023/03/03 09:47:11;;;;;;;13.40;9.50;;;;;;;;;;4957632;28;20413;-79
2023/03/03 09:49:56;;;;;;;11.15;9.57;;;;;;;;;;4973589;28;20406;-79
2023/03/03 09:52:41;;;;;;;13.38;9.55;;;;;;;;;;4974925;28;20417;-79
2023/03/03 09:55:10;;;;;;;11.85;9.02;;;;;;;;;;4976845;28;20405;-79
2023/03/03 09:57:39;;;;;;;12.25;9.25;;;;;;;;;;4977089;28;20470;-79
2023/03/03 10:00:24;;;;;;;10.48;8.75;;;;;;;;;;4976404;28;20491;-79
2023/03/03 10:02:50;;;;;;;11.77;9.32;;;;;;;;;;4992037;28;20444;-78
2023/03/03 10:05:19;;;;;;;10.60;8.23;;;;;;;;;;4993031;28;20519;-78
2023/03/03 10:07:57;;;;;;;11.05;8.27;;;;;;;;;;4991948;28;20416;-78
2023/03/03 10:10:29;;;;;;;11.60;7.75;;;;;;;;;;4994010;28;20485;-78
2023/03/03 10:12:58;;;;;;;9.30;7.10;;;;;;;;;;4992975;28;20416;-78
2023/03/03 10:15:42;;;;;;;8.43;6.65;;;;;;;;;;4993213;28;20420;-78
2023/03/03 10:18:08;;;;;;;8.00;6.50;;;;;;;;;;4994291;28;20428;-78
2023/03/03 10:20:37;;;;;;;8.23;6.17;;;;;;;;;;4990500;28;20185;-78
2023/03/03 10:23:22;;;;;;;8.90;6.40;;;;;;;;;;4981378;28;20202;-78
2023/03/03 10:25:51;;;;;;;8.52;6.10;;;;;;;;;;4993430;28;20452;-78
2023/03/03 10:28:29;;;;;;;7.68;6.40;;;;;;;;;;4993820;28;20411;-78
2023/03/03 10:31:15;;;;;;;7.93;6.50;;;;;;;;;;4976141;28;20437;-78
2023/03/03 10:33:46;;;;;;;8.02;6.45;;;;;;;;;;4992668;28;20487;-84
2023/03/03 10:36:31;;;;;;;10.15;6.80;;;;;;;;;;4993773;28;20463;-83
2023/03/03 10:39:12;;;;;;;7.63;6.72;;;;;;;;;;4992653;28;20487;-83
2023/03/03 10:41:38;;;;;;;7.97;6.88;;;;;;;;;;4992216;28;20495;-83
2023/03/03 10:44:19;;;;;;;7.82;6.60;;;;;;;;;;4984827;28;20458;-82
2023/03/03 10:46:54;;;;;;;8.18;6.50;;;;;;;;;;4978283;28;20427;-80
2023/03/03 10:49:20;;;;;;;7.72;6.05;;;;;;;;;;4997057;28;20471;-80
2023/03/03 10:51:52;;;;;;;7.70;5.47;;;;;;;;;;4998186;28;20185;-85
2023/03/03 10:54:23;;;;;;;7.40;5.00;;;;;;;;;;4998465;28;20174;-80
2023/03/03 10:56:49;;;;;;;9.87;5.80;;;;;;;;;;4990154;28;20175;-80
2023/03/03 10:59:18;;;;;;;8.38;6.15;;;;;;;;;;4977624;28;20425;-80
2023/03/03 11:01:45;;;;;;;7.07;6.13;;;;;;;;;;4991632;28;20441;-80
2023/03/03 11:04:28;;;;;;;6.55;5.70;;;;;;;;;;4980352;28;20428;-80
2023/03/03 11:06:58;;;;;;;6.13;5.40;;;;;;;;;;4995967;28;20419;-80
2023/03/03 11:09:36;;;;;;;7.07;4.83;;;;;;;;;;4996557;28;20500;-78
2023/03/03 11:12:18;;;;;;;6.77;4.80;;;;;;;;;;4996614;28;20269;-78
2023/03/03 11:14:47;;;;;;;6.23;4.73;;;;;;;;;;4996408;28;20181;-78
2023/03/03 11:17:28;;;;;;;9.00;5.67;;;;;;;;;;4997487;28;20181;-78
2023/03/03 11:19:58;;;;;;;6.17;4.43;;;;;;;;;;4980162;28;20186;-78
2023/03/03 11:22:32;;;;;;;5.53;4.50;;;;;;;;;;4996491;28;20213;-84
2023/03/03 11:25:06;;;;;;;5.27;4.33;;;;;;;;;;4978342;28;20171;-82
2023/03/03 11:27:32;;;;;;;5.07;4.40;;;;;;;;;;4961144;28;20182;-81
2023/03/03 11:30:01;;;;;;;5.53;4.57;;;;;;;;;;4978198;28;20178;-82
2023/03/03 11:32:57;;;;;;;5.13;3.97;;;;;;;;;;4978138;28;20182;-82
2023/03/03 11:35:23;;;;;;;4.13;3.47;;;;;;;;;;4953063;28;20289;-82
2023/03/03 11:37:52;;;;;;;5.53;3.93;;;;;;;;;;4993270;28;20186;-82
2023/03/03 11:40:25;;;;;;;4.77;3.70;;;;;;;;;;4977111;28;20310;-79
2023/03/03 11:42:51;;;;;;;3.73;3.10;;;;;;;;;;4976819;28;20253;-78
2023/03/03 11:45:22;;;;;;;5.13;3.97;;;;;;;;;;4976866;28;20214;-79
2023/03/03 11:47:54;;;;;;;4.47;3.77;;;;;;;;;;4977663;28;20753;-79
2023/03/03 11:50:51;;;;;;;4.27;3.40;;;;;;;;;;4976972;28;20244;-78
2023/03/03 11:53:29;;;;;;;5.60;3.77;;;;;;;;;;4910762;28;20240;-79
2023/03/03 11:56:04;;;;;;;4.73;3.80;;;;;;;;;;4976743;28;20174;-78
2023/03/03 11:58:54;;;;;;;5.17;3.53;;;;;;;;;;4976301;28;20221;-79
2023/03/03 12:01:29;;;;;;;4.40;3.63;;;;;;;;;;4960845;28;20249;-79
2023/03/03 12:04:03;;;;;;;4.10;3.40;;;;;;;;;;4996121;28;20200;-79
2023/03/03 12:06:42;;;;;;;4.17;3.73;;;;;;;;;;4995972;28;20177;-78
2023/03/03 12:09:27;;;;;;;4.87;3.80;;;;;;;;;;4997155;28;20177;-79
2023/03/03 12:11:54;;;;;;;4.20;3.73;;;;;;;;;;4996887;28;20252;-79
2023/03/03 12:14:26;;;;;;;3.90;3.40;;;;;;;;;;4995941;28;20213;-80
2023/03/03 12:17:22;;;;;;;4.50;3.60;;;;;;;;;;4995770;28;20182;-80
2023/03/03 12:20:10;;;;;;;4.10;3.20;;;;;;;;;;4944760;28;20290;-80
2023/03/03 12:22:48;;;;;;;5.63;3.60;;;;;;;;;;4976152;28;20221;-80
2023/03/03 12:25:18;;;;;;;6.50;3.40;;;;;;;;;;4975911;28;20232;-80
2023/03/03 12:27:44;;;;;;;5.23;3.67;;;;;;;;;;4990803;28;20187;-80
2023/03/03 12:30:20;;;;;;;6.07;4.07;;;;;;;;;;4959983;28;20202;-80
2023/03/03 12:32:46;;;;;;;4.60;3.47;;;;;;;;;;4993208;28;20185;-83
2023/03/03 12:35:20;;;;;;;4.57;3.53;;;;;;;;;;4995529;28;20197;-84
2023/03/03 12:38:10;;;;;;;5.57;4.10;;;;;;;;;;4978629;28;20189;-80
2023/03/03 12:40:43;;;;;;;5.37;4.30;;;;;;;;;;4992042;28;20230;-80
2023/03/03 12:43:28;;;;;;;6.63;4.07;;;;;;;;;;4975701;28;20211;-80
2023/03/03 12:46:13;;;;;;;3.33;3.03;;;;;;;;;;4983348;28;20248;-79
2023/03/03 12:48:43;;;;;;;6.47;3.50;;;;;;;;;;4992816;28;20179;-83
2023/03/03 12:51:28;;;;;;;4.73;3.40;;;;;;;;;;4974637;28;20185;-83
2023/03/03 12:54:13;;;;;;;4.20;3.17;;;;;;;;;;4978038;28;20276;-84
2023/03/03 12:56:39;;;;;;;3.73;3.20;;;;;;;;;;4972320;28;20186;-83
2023/03/03 12:59:12;;;;;;;2.77;2.57;;;;;;;;;;4978518;28;20193;-83
2023/03/03 13:01:57;;;;;;;3.70;2.83;;;;;;;;;;4993683;28;20212;-83
2023/03/03 13:04:23;;;;;;;4.13;2.70;;;;;;;;;;4990097;28;20214;-80
2023/03/03 13:07:15;;;;;;;3.40;2.60;;;;;;;;;;4994821;28;20214;-78
2023/03/03 13:09:47;;;;;;;4.07;2.97;;;;;;;;;;4959721;28;20186;-80
2023/03/03 13:12:32;;;;;;;4.57;2.77;;;;;;;;;;4994084;28;20258;-80
2023/03/03 13:15:04;;;;;;;3.93;3.10;;;;;;;;;;4993855;28;20197;-79
2023/03/03 13:17:33;;;;;;;7.63;3.10;;;;;;;;;;4995782;28;20182;-80
2023/03/03 13:19:59;;;;;;;4.47;2.73;;;;;;;;;;4994979;28;20234;-80
2023/03/03 13:22:25;;;;;;;3.37;2.50;;;;;;;;;;4994639;28;20210;-80
2023/03/03 13:24:58;;;;;;;3.87;3.20;;;;;;;;;;4994484;28;20174;-80
2023/03/03 13:27:27;;;;;;;4.07;2.60;;;;;;;;;;4994494;28;20209;-80
2023/03/03 13:30:00;;;;;;;3.27;2.47;;;;;;;;;;4994582;28;20229;-80
2023/03/03 13:32:43;;;;;;;3.20;2.10;;;;;;;;;;4994800;28;20182;-80
2023/03/03 13:35:19;;;;;;;3.40;2.40;;;;;;;;;;4994332;28;20193;-80
2023/03/03 13:37:47;;;;;;;2.10;1.83;;;;;;;;;;4994570;28;20189;-80
2023/03/03 13:40:13;;;;;;;2.77;2.20;;;;;;;;;;4994304;28;20182;-79
2023/03/03 13:42:41;;;;;;;2.83;2.23;;;;;;;;;;4994333;28;20304;-80
2023/03/03 13:45:22;;;;;;;3.47;2.47;;;;;;;;;;4994593;28;20186;-80
2023/03/03 13:48:15;;;;;;;3.07;2.33;;;;;;;;;;4994700;28;20186;-79
2023/03/03 13:50:44;;;;;;;3.90;2.50;;;;;;;;;;4956008;28;20193;-80
2023/03/03 13:53:26;;;;;;;5.93;3.03;;;;;;;;;;4993927;28;20185;-79
2023/03/03 13:56:03;;;;;;;4.95;3.53;;;;;;;;;;4993122;28;20427;-80
2023/03/03 13:58:41;;;;;;;4.33;3.20;;;;;;;;;;4993899;28;20236;-80
2023/03/03 14:01:16;;;;;;;2.77;2.40;;;;;;;;;;4993901;28;20189;-80
2023/03/03 14:04:15;;;;;;;3.67;2.40;;;;;;;;;;4994319;28;20178;-80
2023/03/03 14:06:45;;;;;;;4.43;2.53;;;;;;;;;;4962452;28;20194;-80
2023/03/03 14:09:17;;;;;;;3.67;2.80;;;;;;;;;;4992914;28;20186;-80
2023/03/03 14:11:51;;;;;;;3.50;2.70;;;;;;;;;;4990071;28;20205;-86
2023/03/03 14:14:40;;;;;;;5.50;3.33;;;;;;;;;;4993451;28;20186;-86
2023/03/03 14:17:12;;;;;;;5.13;3.03;;;;;;;;;;4993224;28;20188;-85
2023/03/03 14:19:56;;;;;;;4.20;2.90;;;;;;;;;;4977754;28;20195;-85
2023/03/03 14:22:26;;;;;;;5.20;2.97;;;;;;;;;;4977148;28;20213;-86
2023/03/03 14:24:55;;;;;;;7.50;2.80;;;;;;;;;;4993681;28;20224;-85
2023/03/03 14:27:24;;;;;;;4.53;3.17;;;;;;;;;;4993911;28;20210;-81
2023/03/03 14:29:50;;;;;;;4.63;3.13;;;;;;;;;;4992419;28;20218;-80
2023/03/03 14:32:26;;;;;;;3.73;2.67;;;;;;;;;;4993886;28;20216;-80
2023/03/03 14:35:01;;;;;;;7.43;2.90;;;;;;;;;;4977792;28;20213;-80
2023/03/03 14:37:44;;;;;;;4.80;2.92;;;;;;;;;;4994261;28;20424;-80
2023/03/03 14:40:29;;;;;;;5.77;2.93;;;;;;;;;;4994570;28;20180;-80
2023/03/03 14:42:57;;;;;;;4.27;2.50;;;;;;;;;;4993569;28;20217;-81
2023/03/03 14:45:32;;;;;;;4.47;2.43;;;;;;;;;;4983845;28;20253;-85
2023/03/03 14:47:59;;;;;;;3.07;2.20;;;;;;;;;;4957947;28;20248;-85
2023/03/03 14:50:31;;;;;;;4.47;2.50;;;;;;;;;;4958041;28;20183;-85
2023/03/03 14:53:20;;;;;;;5.17;2.20;;;;;;;;;;4958125;28;20191;-85
2023/03/03 14:55:47;;;;;;;3.43;2.00;;;;;;;;;;4958131;28;20286;-85
2023/03/03 14:58:31;;;;;;;2.90;1.80;;;;;;;;;;4958474;28;20186;-85
2023/03/03 15:01:07;;;;;;;5.47;2.43;;;;;;;;;;4975164;28;20178;-80
2023/03/03 15:03:36;;;;;;;3.37;2.17;;;;;;;;;;4975256;28;20206;-81
2023/03/03 15:06:10;;;;;;;3.00;1.90;;;;;;;;;;4958174;28;20178;-81
2023/03/03 15:08:38;;;;;;;3.27;2.10;;;;;;;;;;4957944;28;20245;-81
2023/03/03 15:11:19;;;;;;;4.73;2.23;;;;;;;;;;4975283;28;20258;-80
2023/03/03 15:13:45;;;;;;;2.93;2.20;;;;;;;;;;4975031;28;20182;-80
2023/03/03 15:16:16;;;;;;;3.13;2.20;;;;;;;;;;4982771;28;20241;-80
2023/03/03 15:19:10;;;;;;;5.78;2.55;;;;;;;;;;5007816;28;20417;-82
2023/03/03 15:21:37;;;;;;;6.07;2.50;;;;;;;;;;4991439;28;20437;-83
2023/03/03 15:24:12;;;;;;;7.73;2.60;;;;;;;;;;4993697;28;20201;-82
2023/03/03 15:26:44;;;;;;;5.13;2.53;;;;;;;;;;4993856;28;20178;-82
2023/03/03 15:29:13;;;;;;;4.57;2.50;;;;;;;;;;4993222;28;20170;-82
2023/03/03 15:31:57;;;;;;;5.07;2.70;;;;;;;;;;4993915;28;20267;-83
2023/03/03 15:34:44;;;;;;;4.57;2.20;;;;;;;;;;4996457;28;20213;-80
2023/03/03 15:37:19;;;;;;;4.10;2.10;;;;;;;;;;4996757;28;20174;-80